Observation data for Pampa on 08/14/2019      Previous  Date  Next       Current Mesonet Observations  Soil Data  Daily Summary Page  Observations in Plain Language
KPMS 140500Z 04022G29KT 21/15 A3024 RMK A01 T02110150  RH  071%=      5-min Rain = 0
KPMS 140505Z 04019G27KT 20/14 A3024 RMK A01 T02030142  RH  071%=      5-min Rain = 0
KPMS 140510Z 04022G28KT 20/14 A3024 RMK A01 T02020139  RH  070%=      5-min Rain = 0
KPMS 140515Z 05019G25KT 20/14 A3024 RMK A01 T02000138  RH  070%=      5-min Rain = 0
KPMS 140520Z 05019G25KT 20/14 A3023 RMK A01 T01990136  RH  070%=      5-min Rain = 0
KPMS 140525Z 05018G24KT 20/13 A3023 RMK A01 T01970134  RH  070%=      5-min Rain = 0
KPMS 140530Z 05017G23KT 20/13 A3023 RMK A01 T01950134  RH  070%=      5-min Rain = 0
KPMS 140535Z 05018G23KT 20/13 A3022 RMK A01 T01950132  RH  070%=      5-min Rain = 0
KPMS 140540Z 05016G22KT 19/13 A3022 RMK A01 T01930132  RH  071%=      5-min Rain = 0
KPMS 140545Z 05016G23KT 19/13 A3022 RMK A01 T01920132  RH  071%=      5-min Rain = 0
KPMS 140550Z 05016G22KT 19/13 A3022 RMK A01 T01920132  RH  071%=      5-min Rain = 0
KPMS 140555Z 05017G24KT 19/13 A3022 RMK A01 T01910131  RH  071%=      5-min Rain = 0
KPMS 140600Z 05018G24KT 19/13 A3022 RMK A01 T01920129  RH  070%=      5-min Rain = 0
KPMS 140605Z 05017G23KT 19/13 A3022 RMK A01 T01900128  RH  070%=      5-min Rain = 0
KPMS 140610Z 05015KT 19/13 A3023 RMK A01 T01890128  RH  071%=      5-min Rain = 0
KPMS 140615Z 05015G20KT 19/13 A3023 RMK A01 T01880127  RH  070%=      5-min Rain = 0
KPMS 140620Z 05014KT 19/13 A3022 RMK A01 T01880127  RH  070%=      5-min Rain = 0
KPMS 140625Z 05013KT 19/13 A3022 RMK A01 T01860127  RH  071%=      5-min Rain = 0
KPMS 140630Z 05012KT 19/13 A3022 RMK A01 T01860128  RH  072%=      5-min Rain = 0
KPMS 140635Z 04011KT 19/13 A3022 RMK A01 T01850127  RH  072%=      5-min Rain = 0
KPMS 140640Z 04013KT 19/13 A3021 RMK A01 T01850127  RH  072%=      5-min Rain = 0
KPMS 140645Z 04012G17KT 18/13 A3021 RMK A01 T01840126  RH  072%=      5-min Rain = 0
KPMS 140650Z 05012G17KT 19/13 A3021 RMK A01 T01850125  RH  071%=      5-min Rain = 0
KPMS 140655Z 05012KT 19/13 A302 RMK A01 T01860125  RH  070%=      5-min Rain = 0
KPMS 140700Z 04013KT 19/13 A302 RMK A01 T01860125  RH  070%=      5-min Rain = 0
KPMS 140705Z 04011KT 19/13 A3021 RMK A01 T01850126  RH  071%=      5-min Rain = 0
KPMS 140710Z 03010KT 18/13 A3021 RMK A01 T01840126  RH  072%=      5-min Rain = 0
KPMS 140715Z 03011KT 18/13 A3021 RMK A01 T01830127  RH  073%=      5-min Rain = 0
KPMS 140720Z 03009KT 18/13 A3021 RMK A01 T01820127  RH  073%=      5-min Rain = 0
KPMS 140725Z 03008KT 18/13 A3021 RMK A01 T01800128  RH  074%=      5-min Rain = 0
KPMS 140730Z 03008KT 18/13 A3021 RMK A01 T01790128  RH  075%=      5-min Rain = 0
KPMS 140735Z 03008KT 18/13 A3021 RMK A01 T01790129  RH  076%=      5-min Rain = 0
KPMS 140740Z 03007KT 18/13 A3021 RMK A01 T01780130  RH  076%=      5-min Rain = 0
KPMS 140745Z 02006KT 18/13 A3021 RMK A01 T01760130  RH  078%=      5-min Rain = 0
KPMS 140750Z 02006KT 17/13 A302 RMK A01 T01740130  RH  079%=      5-min Rain = 0
KPMS 140755Z 03006KT 17/13 A302 RMK A01 T01720130  RH  080%=      5-min Rain = 0
KPMS 140800Z 03008KT 17/13 A302 RMK A01 T01730131  RH  080%=      5-min Rain = 0
KPMS 140805Z 03008G15KT 18/13 A302 RMK A01 T01750132  RH  079%=      5-min Rain = 0
KPMS 140810Z 04010KT 18/13 A3019 RMK A01 T01770132  RH  078%=      5-min Rain = 0
KPMS 140815Z 05011KT 18/13 A3019 RMK A01 T01780133  RH  078%=      5-min Rain = 0
KPMS 140820Z 04009KT 18/13 A3019 RMK A01 T01770134  RH  079%=      5-min Rain = 0
KPMS 140825Z 04008KT 18/13 A3019 RMK A01 T01750134  RH  080%=      5-min Rain = 0
KPMS 140830Z 04008KT 17/14 A3019 RMK A01 T01730135  RH  081%=      5-min Rain = 0
KPMS 140835Z 03007KT 17/14 A3019 RMK A01 T01720135  RH  082%=      5-min Rain = 0
KPMS 140840Z 02006KT 17/14 A302 RMK A01 T01700135  RH  084%=      5-min Rain = 0
KPMS 140845Z 01006KT 17/14 A302 RMK A01 T01690135  RH  084%=      5-min Rain = 0
KPMS 140850Z 36006KT 17/14 A3021 RMK A01 T01680135  RH  085%=      5-min Rain = 0
KPMS 140855Z 35005KT 17/14 A3021 RMK A01 T01660135  RH  086%=      5-min Rain = 0
KPMS 140900Z 36005KT 17/14 A3021 RMK A01 T01650135  RH  086%=      5-min Rain = 0
KPMS 140905Z 00004KT 16/14 A3021 RMK A01 T01640135  RH  087%=      5-min Rain = 0
KPMS 140910Z 01004KT 16/14 A302 RMK A01 T01630135  RH  087%=      5-min Rain = 0
KPMS 140915Z 02004KT 17/14 A302 RMK A01 T01650135  RH  086%=      5-min Rain = 0
KPMS 140920Z 03005KT 17/14 A302 RMK A01 T01680136  RH  085%=      5-min Rain = 0
KPMS 140925Z 04005KT 17/14 A3019 RMK A01 T01690135  RH  084%=      5-min Rain = 0
KPMS 140930Z 00007KT 17/14 A302 RMK A01 T01700135  RH  083%=      5-min Rain = 0
KPMS 140935Z 35006G11KT 17/14 A302 RMK A01 T01670136  RH  086%=      5-min Rain = 0
KPMS 140940Z 33010G16KT 16/14 A3021 RMK A01 T01640137  RH  087%=      5-min Rain = 0
KPMS 140945Z 32009G16KT 17/14 A3022 RMK A01 T01650137  RH  087%=      5-min Rain = 0
KPMS 140950Z 31008KT 17/14 A3021 RMK A01 T01660137  RH  087%=      5-min Rain = 0
KPMS 140955Z 34010G17KT 17/14 A3022 RMK A01 T01670137  RH  086%=      5-min Rain = 0
KPMS 141000Z 33014G19KT 17/14 A3023 RMK A01 T01680137  RH  086%=      5-min Rain = 0
KPMS 141005Z 33015G20KT 17/14 A3023 RMK A01 T01690136  RH  084%=      5-min Rain = 0
KPMS 141010Z 33013G20KT 17/14 A3023 RMK A01 T01690135  RH  083%=      5-min Rain = 0
KPMS 141015Z 32013G18KT 17/13 A3023 RMK A01 T01700134  RH  083%=      5-min Rain = 0
KPMS 141020Z 32011G18KT 17/13 A3023 RMK A01 T01710133  RH  082%=      5-min Rain = 0
KPMS 141025Z 32011G16KT 17/13 A3023 RMK A01 T01710133  RH  082%=      5-min Rain = 0
KPMS 141030Z 32011G17KT 17/13 A3023 RMK A01 T01720133  RH  081%=      5-min Rain = 0
KPMS 141035Z 32013KT 17/13 A3024 RMK A01 T01730133  RH  080%=      5-min Rain = 0
KPMS 141040Z 32013KT 17/13 A3023 RMK A01 T01740132  RH  080%=      5-min Rain = 0
KPMS 141045Z 31014KT 18/13 A3022 RMK A01 T01750132  RH  079%=      5-min Rain = 0
KPMS 141050Z 31012KT 18/13 A3022 RMK A01 T01760132  RH  079%=      5-min Rain = 0
KPMS 141055Z 31011KT 18/13 A3022 RMK A01 T01760133  RH  079%=      5-min Rain = 0
KPMS 141100Z 31008KT 18/13 A3021 RMK A01 T01760133  RH  079%=      5-min Rain = 0
KPMS 141105Z 31008KT 18/13 A3022 RMK A01 T01770133  RH  078%=      5-min Rain = 0
KPMS 141110Z 31006KT 18/13 A3021 RMK A01 T01760132  RH  079%=      5-min Rain = 0
KPMS 141115Z 31005KT 18/13 A3021 RMK A01 T01770133  RH  078%=      5-min Rain = 0
KPMS 141120Z 29005KT 18/13 A3021 RMK A01 T01770132  RH  078%=      5-min Rain = 0
KPMS 141125Z 28002KT 18/13 A3021 RMK A01 T01760132  RH  078%=      5-min Rain = 0
KPMS 141130Z 15001KT 18/13 A3021 RMK A01 T01760132  RH  079%=      5-min Rain = 0
KPMS 141135Z 06000KT 17/13 A3021 RMK A01 T01730133  RH  081%=      5-min Rain = 0
KPMS 141140Z 33000KT 17/13 A3021 RMK A01 T01720134  RH  082%=      5-min Rain = 0
KPMS 141145Z 26002KT 17/13 A3021 RMK A01 T01720134  RH  082%=      5-min Rain = 0
KPMS 141150Z 24003KT 18/14 A3021 RMK A01 T01750135  RH  080%=      5-min Rain = 0
KPMS 141155Z 22005KT 18/13 A3021 RMK A01 T01780134  RH  078%=      5-min Rain = 0
KPMS 141200Z 22004KT 18/13 A3022 RMK A01 T01780134  RH  079%=      5-min Rain = 0
KPMS 141205Z 22003KT 18/13 A3022 RMK A01 T01790133  RH  078%=      5-min Rain = 0
KPMS 141210Z 26003KT 18/13 A3023 RMK A01 T01790134  RH  078%=      5-min Rain = 0
KPMS 141215Z 25003KT 18/14 A3023 RMK A01 T01800136  RH  078%=      5-min Rain = 0
KPMS 141220Z 26004KT 18/14 A3023 RMK A01 T01830135  RH  077%=      5-min Rain = 0
KPMS 141225Z 25004KT 19/14 A3023 RMK A01 T01860136  RH  076%=      5-min Rain = 0
KPMS 141230Z 25005KT 19/13 A3023 RMK A01 T01910134  RH  072%=      5-min Rain = 0
KPMS 141235Z 21005KT 19/14 A3022 RMK A01 T01910135  RH  073%=      5-min Rain = 0
KPMS 141240Z 20006KT 19/14 A3021 RMK A01 T01850138  RH  077%=      5-min Rain = 0
KPMS 141245Z 19005KT 18/14 A3021 RMK A01 T01840138  RH  078%=      5-min Rain = 0
KPMS 141250Z 17003KT 19/14 A3022 RMK A01 T01860137  RH  076%=      5-min Rain = 0
KPMS 141255Z 15003KT 19/14 A3023 RMK A01 T01860140  RH  078%=      5-min Rain = 0
KPMS 141300Z 16001KT 19/14 A3024 RMK A01 T01850141  RH  079%=      5-min Rain = 0
KPMS 141305Z 21001KT 19/14 A3024 RMK A01 T01850142  RH  079%=      5-min Rain = 0
KPMS 141310Z 20001KT 19/15 A3024 RMK A01 T01850145  RH  081%=      5-min Rain = 0
KPMS 141315Z 09004KT 18/15 A3024 RMK A01 T01840146  RH  082%=      5-min Rain = 0
KPMS 141320Z 08003KT 19/14 A3024 RMK A01 T01880141  RH  078%=      5-min Rain = 0
KPMS 141325Z 10004KT 19/15 A3024 RMK A01 T01900145  RH  078%=      5-min Rain = 0
KPMS 141330Z 11006KT 19/15 A3024 RMK A01 T01910146  RH  078%=      5-min Rain = 0
KPMS 141335Z 11004KT 19/15 A3024 RMK A01 T01930148  RH  079%=      5-min Rain = 0
KPMS 141340Z 10005KT 20/15 A3024 RMK A01 T01980146  RH  075%=      5-min Rain = 0
KPMS 141345Z 12005KT 20/14 A3024 RMK A01 T02020142  RH  071%=      5-min Rain = 0
KPMS 141350Z 13004KT 21/14 A3024 RMK A01 T02060138  RH  068%=      5-min Rain = 0
KPMS 141355Z 16004KT 21/14 A3023 RMK A01 T02090139  RH  067%=      5-min Rain = 0
KPMS 141400Z 14004KT 21/14 A3023 RMK A01 T02100139  RH  067%=      5-min Rain = 0
KPMS 141405Z 12003KT 21/14 A3023 RMK A01 T02110139  RH  066%=      5-min Rain = 0
KPMS 141410Z 17002KT 21/14 A3024 RMK A01 T02120139  RH  065%=      5-min Rain = 0
KPMS 141415Z 16003KT 21/14 A3023 RMK A01 T02130142  RH  067%=      5-min Rain = 0
KPMS 141420Z 15005KT 21/14 A3022 RMK A01 T02130142  RH  067%=      5-min Rain = 0
KPMS 141425Z 10005KT 21/14 A3023 RMK A01 T02120141  RH  067%=      5-min Rain = 0
KPMS 141430Z 05006KT 21/14 A3024 RMK A01 T02140136  RH  064%=      5-min Rain = 0
KPMS 141435Z 08006KT 22/13 A3023 RMK A01 T02150132  RH  062%=      5-min Rain = 0
KPMS 141440Z 09008KT 22/14 A3022 RMK A01 T02170135  RH  062%=      5-min Rain = 0
KPMS 141445Z 04009G14KT 22/13 A3024 RMK A01 T02220127  RH  057%=      5-min Rain = 0
KPMS 141450Z 01015KT 22/13 A3026 RMK A01 T02220128  RH  057%=      5-min Rain = 0
KPMS 141455Z 01016G22KT 22/13 A3026 RMK A01 T02150133  RH  062%=      5-min Rain = 0
KPMS 141500Z 01013KT 21/13 A3027 RMK A01 T02120134  RH  063%=      5-min Rain = 0
KPMS 141505Z 02012G17KT 21/14 A3027 RMK A01 T02110135  RH  064%=      5-min Rain = 0
KPMS 141510Z 02010G16KT 21/14 A3027 RMK A01 T02130137  RH  065%=      5-min Rain = 0
KPMS 141515Z 02012KT 22/14 A3027 RMK A01 T02150137  RH  064%=      5-min Rain = 0
KPMS 141520Z 02013G18KT 22/14 A3026 RMK A01 T02180138  RH  063%=      5-min Rain = 0
KPMS 141525Z 02016G21KT 22/14 A3026 RMK A01 T02220137  RH  061%=      5-min Rain = 0
KPMS 141530Z 01014G21KT 23/14 A3027 RMK A01 T02260136  RH  059%=      5-min Rain = 0
KPMS 141535Z 00017KT 23/14 A3027 RMK A01 T02290135  RH  057%=      5-min Rain = 0
KPMS 141540Z 00015G20KT 23/14 A3028 RMK A01 T02330136  RH  056%=      5-min Rain = 0
KPMS 141545Z 36014G19KT 24/14 A3028 RMK A01 T02370136  RH  055%=      5-min Rain = 0
KPMS 141550Z 36016KT 24/14 A3027 RMK A01 T02400135  RH  054%=      5-min Rain = 0
KPMS 141555Z 01014G20KT 24/13 A3027 RMK A01 T02370134  RH  055%=      5-min Rain = 0
KPMS 141600Z 01014KT 24/13 A3027 RMK A01 T02360134  RH  055%=      5-min Rain = 0
KPMS 141605Z 00013KT 24/14 A3027 RMK A01 T02390136  RH  055%=      5-min Rain = 0
KPMS 141610Z 36014KT 24/14 A3026 RMK A01 T02410135  RH  054%=      5-min Rain = 0
KPMS 141615Z 36013G18KT 24/14 A3026 RMK A01 T02420136  RH  053%=      5-min Rain = 0
KPMS 141620Z 01011KT 25/14 A3026 RMK A01 T02470137  RH  053%=      5-min Rain = 0
KPMS 141625Z 35013G18KT 25/14 A3026 RMK A01 T02490138  RH  052%=      5-min Rain = 0
KPMS 141630Z 35012G17KT 25/14 A3026 RMK A01 T02540139  RH  051%=      5-min Rain = 0
KPMS 141635Z 35013G18KT 25/14 A3026 RMK A01 T02500136  RH  051%=      5-min Rain = 0
KPMS 141640Z 35012KT 25/14 A3026 RMK A01 T02520139  RH  052%=      5-min Rain = 0
KPMS 141645Z 35012KT 25/14 A3025 RMK A01 T02530137  RH  051%=      5-min Rain = 0
KPMS 141650Z 35011KT 25/14 A3025 RMK A01 T02530136  RH  050%=      5-min Rain = 0
KPMS 141655Z 36009KT 25/14 A3024 RMK A01 T02520137  RH  051%=      5-min Rain = 0
KPMS 141700Z 02009KT 26/14 A3024 RMK A01 T02570138  RH  050%=      5-min Rain = 0
KPMS 141705Z 35009KT 26/14 A3024 RMK A01 T02570135  RH  049%=      5-min Rain = 0
KPMS 141710Z 35009KT 26/14 A3023 RMK A01 T02560135  RH  049%=      5-min Rain = 0
KPMS 141715Z 35008KT 26/13 A3023 RMK A01 T02580132  RH  047%=      5-min Rain = 0
KPMS 141720Z 34006KT 26/13 A3023 RMK A01 T02590133  RH  048%=      5-min Rain = 0
KPMS 141725Z 36007KT 26/13 A3022 RMK A01 T02620130  RH  046%=      5-min Rain = 0
KPMS 141730Z 01006G11KT 27/13 A3021 RMK A01 T02670129  RH  044%=      5-min Rain = 0
KPMS 141735Z 05004KT 27/13 A3021 RMK A01 T02690125  RH  042%=      5-min Rain = 0
KPMS 141740Z 05004KT 27/13 A302 RMK A01 T02720130  RH  043%=      5-min Rain = 0
KPMS 141745Z 06006KT 28/13 A3021 RMK A01 T02750125  RH  041%=      5-min Rain = 0
KPMS 141750Z 04006KT 28/13 A302 RMK A01 T02750126  RH  041%=      5-min Rain = 0
KPMS 141755Z 01005KT 27/12 A3021 RMK A01 T02720122  RH  041%=      5-min Rain = 0
KPMS 141800Z 07003KT 28/12 A302 RMK A01 T02750116  RH  039%=      5-min Rain = 0
KPMS 141805Z 12003KT 28/12 A302 RMK A01 T02760121  RH  040%=      5-min Rain = 0
KPMS 141810Z 12003KT 28/12 A3019 RMK A01 T02800119  RH  038%=      5-min Rain = 0
KPMS 141815Z 07004KT 28/12 A3019 RMK A01 T02830123  RH  039%=      5-min Rain = 0
KPMS 141820Z 08005G10KT 29/13 A3019 RMK A01 T02850125  RH  039%=      5-min Rain = 0
KPMS 141825Z 12007KT 29/13 A3019 RMK A01 T02890125  RH  038%=      5-min Rain = 0
KPMS 141830Z 12006KT 28/12 A3018 RMK A01 T02840118  RH  037%=      5-min Rain = 0
KPMS 141835Z 16004KT 28/12 A3018 RMK A01 T02810120  RH  038%=      5-min Rain = 0
KPMS 141840Z 13005KT 28/13 A3018 RMK A01 T02830125  RH  039%=      5-min Rain = 0
KPMS 141845Z 14004KT 29/12 A3018 RMK A01 T02850124  RH  038%=      5-min Rain = 0
KPMS 141850Z 16005KT 28/12 A3018 RMK A01 T02840121  RH  038%=      5-min Rain = 0
KPMS 141855Z 15005KT 29/12 A3018 RMK A01 T02850121  RH  038%=      5-min Rain = 0
KPMS 141900Z 16004KT 29/12 A3018 RMK A01 T02880121  RH  037%=      5-min Rain = 0
KPMS 141905Z 15007KT 29/12 A3018 RMK A01 T02900122  RH  037%=      5-min Rain = 0
KPMS 141910Z 18004KT 29/12 A3018 RMK A01 T02900118  RH  036%=      5-min Rain = 0
KPMS 141915Z 13005KT 29/12 A3018 RMK A01 T02860121  RH  038%=      5-min Rain = 0
KPMS 141920Z 14007KT 29/12 A3018 RMK A01 T02900124  RH  037%=      5-min Rain = 0
KPMS 141925Z 13005KT 30/12 A3018 RMK A01 T02960121  RH  035%=      5-min Rain = 0
KPMS 141930Z 12003G8KT 30/12 A3018 RMK A01 T02980119  RH  034%=      5-min Rain = 0
KPMS 141935Z 14003KT 30/12 A3018 RMK A01 T02970117  RH  034%=      5-min Rain = 0
KPMS 141940Z 18006G12KT 30/13 A3017 RMK A01 T02970126  RH  036%=      5-min Rain = 0
KPMS 141945Z 15007G13KT 30/13 A3018 RMK A01 T02970125  RH  036%=      5-min Rain = 0
KPMS 141950Z 17006KT 30/13 A3018 RMK A01 T02980127  RH  036%=      5-min Rain = 0
KPMS 141955Z 18006KT 30/13 A3018 RMK A01 T03020125  RH  035%=      5-min Rain = 0
KPMS 142000Z 19005KT 30/12 A3018 RMK A01 T02990124  RH  035%=      5-min Rain = 0
KPMS 142005Z 17004KT 30/12 A3017 RMK A01 T03030124  RH  035%=      5-min Rain = 0
KPMS 142010Z 21003KT 30/12 A3017 RMK A01 T02980118  RH  034%=      5-min Rain = 0
KPMS 142015Z 19003G8KT 30/12 A3017 RMK A01 T02980121  RH  035%=      5-min Rain = 0
KPMS 142020Z 18003KT 30/12 A3017 RMK A01 T03000120  RH  034%=      5-min Rain = 0
KPMS 142025Z 17005KT 30/12 A3017 RMK A01 T03020118  RH  033%=      5-min Rain = 0
KPMS 142030Z 19004KT 30/12 A3017 RMK A01 T03000117  RH  034%=      5-min Rain = 0
KPMS 142035Z 22003KT 30/12 A3017 RMK A01 T03010118  RH  034%=      5-min Rain = 0
KPMS 142040Z 21003KT 30/12 A3017 RMK A01 T03020118  RH  033%=      5-min Rain = 0
KPMS 142045Z 07001KT 30/12 A3016 RMK A01 T03040116  RH  033%=      5-min Rain = 0
KPMS 142050Z 23001KT 30/12 A3016 RMK A01 T03030117  RH  033%=      5-min Rain = 0
KPMS 142055Z 21003KT 30/11 A3016 RMK A01 T03020113  RH  032%=      5-min Rain = 0
KPMS 142100Z 25003KT 30/11 A3016 RMK A01 T03020114  RH  033%=      5-min Rain = 0
KPMS 142105Z 20003G8KT 31/12 A3015 RMK A01 T03110121  RH  032%=      5-min Rain = 0
KPMS 142110Z 27003KT 31/12 A3015 RMK A01 T03110120  RH  032%=      5-min Rain = 0
KPMS 142115Z 09004G9KT 31/12 A3015 RMK A01 T03140120  RH  032%=      5-min Rain = 0
KPMS 142120Z 11006KT 31/12 A3015 RMK A01 T03100117  RH  032%=      5-min Rain = 0
KPMS 142125Z 06002KT 31/12 A3014 RMK A01 T03070116  RH  032%=      5-min Rain = 0
KPMS 142130Z 10002KT 31/12 A3014 RMK A01 T03110118  RH  032%=      5-min Rain = 0
KPMS 142135Z 15003KT 32/12 A3014 RMK A01 T03150119  RH  031%=      5-min Rain = 0
KPMS 142140Z 19005KT 31/12 A3014 RMK A01 T03120122  RH  033%=      5-min Rain = 0
KPMS 142145Z 16006KT 31/12 A3013 RMK A01 T03130118  RH  031%=      5-min Rain = 0
KPMS 142150Z 18005KT 31/12 A3013 RMK A01 T03120119  RH  032%=      5-min Rain = 0
KPMS 142155Z 17006KT 31/12 A3013 RMK A01 T03140119  RH  031%=      5-min Rain = 0
KPMS 142200Z 14004KT 31/12 A3013 RMK A01 T03130117  RH  031%=      5-min Rain = 0
KPMS 142205Z 11003KT 31/11 A3012 RMK A01 T03110114  RH  031%=      5-min Rain = 0
KPMS 142210Z 32002G8KT 31/12 A3012 RMK A01 T03110115  RH  031%=      5-min Rain = 0
KPMS 142215Z 15006KT 32/12 A3012 RMK A01 T03160116  RH  031%=      5-min Rain = 0
KPMS 142220Z 16004KT 31/12 A3012 RMK A01 T03140115  RH  030%=      5-min Rain = 0
KPMS 142225Z 19005KT 32/12 A3012 RMK A01 T03160122  RH  032%=      5-min Rain = 0
KPMS 142230Z 18006KT 32/12 A3012 RMK A01 T03150121  RH  032%=      5-min Rain = 0
KPMS 142235Z 19006KT 32/12 A3011 RMK A01 T03150121  RH  032%=      5-min Rain = 0
KPMS 142240Z 19005KT 31/12 A3011 RMK A01 T03120115  RH  031%=      5-min Rain = 0
KPMS 142245Z 17006KT 31/12 A3011 RMK A01 T03130119  RH  032%=      5-min Rain = 0
KPMS 142250Z 17007KT 32/12 A3011 RMK A01 T03180119  RH  031%=      5-min Rain = 0
KPMS 142255Z 19005KT 31/12 A3011 RMK A01 T03140119  RH  031%=      5-min Rain = 0
KPMS 142300Z 18005KT 31/12 A3011 RMK A01 T03140122  RH  032%=      5-min Rain = 0
KPMS 142305Z 21003KT 31/12 A3011 RMK A01 T03130115  RH  031%=      5-min Rain = 0
KPMS 142310Z 16005KT 32/12 A3011 RMK A01 T03150116  RH  031%=      5-min Rain = 0
KPMS 142315Z 16006KT 32/12 A3011 RMK A01 T03150119  RH  031%=      5-min Rain = 0
KPMS 142320Z 16006KT 31/12 A3011 RMK A01 T03140116  RH  031%=      5-min Rain = 0
KPMS 142325Z 16004KT 31/12 A3011 RMK A01 T03140115  RH  031%=      5-min Rain = 0
KPMS 142330Z 18005KT 31/11 A3011 RMK A01 T03140114  RH  030%=      5-min Rain = 0
KPMS 142335Z 17004KT 31/12 A3011 RMK A01 T03130115  RH  031%=      5-min Rain = 0
KPMS 142340Z 19006KT 31/12 A3011 RMK A01 T03130117  RH  031%=      5-min Rain = 0
KPMS 142345Z 16005KT 31/12 A301 RMK A01 T03120119  RH  032%=      5-min Rain = 0
KPMS 142350Z 17005KT 31/12 A301 RMK A01 T03120118  RH  032%=      5-min Rain = 0
KPMS 142355Z 19004KT 31/12 A301 RMK A01 T03080119  RH  033%=      5-min Rain = 0
KPMS 150000Z 18004KT 31/12 A301 RMK A01 T03100118  RH  032%=      5-min Rain = 0
KPMS 150005Z 17004KT 31/12 A301 RMK A01 T03110119  RH  032%=      5-min Rain = 0
KPMS 150010Z 17005KT 31/12 A301 RMK A01 T03110120  RH  032%=      5-min Rain = 0
KPMS 150015Z 17004KT 31/12 A301 RMK A01 T03110116  RH  031%=      5-min Rain = 0
KPMS 150020Z 18005KT 31/12 A301 RMK A01 T03090119  RH  032%=      5-min Rain = 0
KPMS 150025Z 17004KT 31/12 A301 RMK A01 T03090117  RH  032%=      5-min Rain = 0
KPMS 150030Z 16005KT 31/12 A301 RMK A01 T03090121  RH  033%=      5-min Rain = 0
KPMS 150035Z 17005KT 31/12 A301 RMK A01 T03070122  RH  033%=      5-min Rain = 0
KPMS 150040Z 15005KT 31/13 A301 RMK A01 T03060126  RH  035%=      5-min Rain = 0
KPMS 150045Z 14007KT 30/13 A3011 RMK A01 T03020125  RH  035%=      5-min Rain = 0
KPMS 150050Z 13007KT 30/13 A3011 RMK A01 T02990127  RH  036%=      5-min Rain = 0
KPMS 150055Z 13007KT 30/13 A3011 RMK A01 T02950128  RH  037%=      5-min Rain = 0
KPMS 150100Z 13007KT 29/13 A3011 RMK A01 T02930126  RH  037%=      5-min Rain = 0
KPMS 150105Z 13005KT 29/13 A3011 RMK A01 T02880131  RH  039%=      5-min Rain = 0
KPMS 150110Z 13005KT 28/13 A3011 RMK A01 T02810134  RH  042%=      5-min Rain = 0
KPMS 150115Z 13006KT 28/14 A3011 RMK A01 T02750136  RH  044%=      5-min Rain = 0
KPMS 150120Z 13006KT 27/14 A3011 RMK A01 T02700135  RH  045%=      5-min Rain = 0
KPMS 150125Z 13006KT 27/14 A3011 RMK A01 T02670135  RH  046%=      5-min Rain = 0
KPMS 150130Z 13006KT 26/14 A3012 RMK A01 T02630137  RH  048%=      5-min Rain = 0
KPMS 150135Z 14006KT 26/14 A3012 RMK A01 T02590135  RH  048%=      5-min Rain = 0
KPMS 150140Z 15007KT 25/14 A3012 RMK A01 T02540142  RH  052%=      5-min Rain = 0
KPMS 150145Z 14006KT 25/15 A3012 RMK A01 T02480145  RH  055%=      5-min Rain = 0
KPMS 150150Z 14007KT 25/15 A3012 RMK A01 T02460145  RH  056%=      5-min Rain = 0
KPMS 150155Z 14008KT 25/14 A3013 RMK A01 T02460141  RH  054%=      5-min Rain = 0
KPMS 150200Z 15007KT 24/14 A3013 RMK A01 T02440143  RH  056%=      5-min Rain = 0
KPMS 150205Z 15007KT 24/14 A3013 RMK A01 T02420144  RH  057%=      5-min Rain = 0
KPMS 150210Z 15007KT 24/14 A3013 RMK A01 T02400144  RH  058%=      5-min Rain = 0
KPMS 150215Z 15007KT 24/15 A3013 RMK A01 T02390145  RH  058%=      5-min Rain = 0
KPMS 150220Z 15007KT 24/15 A3014 RMK A01 T02360147  RH  060%=      5-min Rain = 0
KPMS 150225Z 14006KT 23/15 A3014 RMK A01 T02340146  RH  061%=      5-min Rain = 0
KPMS 150230Z 13005KT 23/15 A3014 RMK A01 T02320147  RH  061%=      5-min Rain = 0
KPMS 150235Z 13006KT 23/15 A3014 RMK A01 T02290148  RH  063%=      5-min Rain = 0
KPMS 150240Z 14006KT 23/15 A3014 RMK A01 T02280148  RH  063%=      5-min Rain = 0
KPMS 150245Z 14006KT 23/15 A3014 RMK A01 T02270150  RH  064%=      5-min Rain = 0
KPMS 150250Z 15006KT 23/15 A3015 RMK A01 T02270150  RH  065%=      5-min Rain = 0
KPMS 150255Z 14006KT 22/15 A3015 RMK A01 T02230152  RH  067%=      5-min Rain = 0
KPMS 150300Z 14006KT 22/15 A3015 RMK A01 T02230149  RH  066%=      5-min Rain = 0
KPMS 150305Z 15006KT 23/15 A3015 RMK A01 T02250149  RH  065%=      5-min Rain = 0
KPMS 150310Z 16007KT 22/15 A3015 RMK A01 T02240149  RH  065%=      5-min Rain = 0
KPMS 150315Z 17007KT 23/14 A3015 RMK A01 T02290143  RH  061%=      5-min Rain = 0
KPMS 150320Z 17008KT 24/14 A3015 RMK A01 T02370139  RH  057%=      5-min Rain = 0
KPMS 150325Z 16007KT 24/14 A3015 RMK A01 T02360140  RH  057%=      5-min Rain = 0
KPMS 150330Z 13007KT 23/14 A3016 RMK A01 T02300142  RH  060%=      5-min Rain = 0
KPMS 150335Z 13007KT 23/14 A3016 RMK A01 T02340137  RH  057%=      5-min Rain = 0
KPMS 150340Z 13008KT 23/14 A3016 RMK A01 T02340139  RH  058%=      5-min Rain = 0
KPMS 150345Z 13007KT 23/14 A3016 RMK A01 T02310141  RH  059%=      5-min Rain = 0
KPMS 150350Z 13007KT 23/14 A3017 RMK A01 T02290141  RH  060%=      5-min Rain = 0
KPMS 150355Z 15005KT 23/14 A3017 RMK A01 T02270143  RH  062%=      5-min Rain = 0
KPMS 150400Z 15005KT 22/15 A3017 RMK A01 T02220145  RH  065%=      5-min Rain = 0
KPMS 150405Z 15006KT 21/15 A3018 RMK A01 T02140149  RH  070%=      5-min Rain = 0
KPMS 150410Z 14007KT 21/15 A3018 RMK A01 T02110151  RH  072%=      5-min Rain = 0
KPMS 150415Z 14005KT 21/15 A3018 RMK A01 T02130148  RH  069%=      5-min Rain = 0
KPMS 150420Z 13006KT 22/15 A3018 RMK A01 T02160145  RH  067%=      5-min Rain = 0
KPMS 150425Z 13006KT 22/14 A3018 RMK A01 T02200143  RH  064%=      5-min Rain = 0
KPMS 150430Z 13005KT 22/14 A3019 RMK A01 T02220142  RH  063%=      5-min Rain = 0
KPMS 150435Z 14005KT 22/14 A3019 RMK A01 T02220143  RH  064%=      5-min Rain = 0
KPMS 150440Z 13006KT 22/15 A3019 RMK A01 T02180145  RH  066%=      5-min Rain = 0
KPMS 150445Z 14006KT 22/15 A3019 RMK A01 T02180145  RH  066%=      5-min Rain = 0
KPMS 150450Z 13006KT 22/15 A3019 RMK A01 T02170147  RH  067%=      5-min Rain = 0
KPMS 150455Z 13007KT 22/15 A3019 RMK A01 T02170145  RH  066%=      5-min Rain = 0

Page generated in 0.0092 seconds.